sensor_id;sensor_type;location;lat;lon;timestamp;temperature;humidity
18876;DHT22;9570;50.854;13.778;2023-06-04T00:01:10;8.00;99.90
18876;DHT22;9570;50.854;13.778;2023-06-04T00:03:36;7.90;99.90
18876;DHT22;9570;50.854;13.778;2023-06-04T00:06:01;7.90;99.90
18876;DHT22;9570;50.854;13.778;2023-06-04T00:08:27;7.90;99.90
18876;DHT22;9570;50.854;13.778;2023-06-04T00:10:52;7.80;99.90
18876;DHT22;9570;50.854;13.778;2023-06-04T00:13:18;7.70;99.90
18876;DHT22;9570;50.854;13.778;2023-06-04T00:15:43;7.70;99.90
18876;DHT22;9570;50.854;13.778;2023-06-04T00:18:09;7.70;99.90
18876;DHT22;9570;50.854;13.778;2023-06-04T00:20:36;7.60;99.90
18876;DHT22;9570;50.854;13.778;2023-06-04T00:23:02;7.60;99.90
18876;DHT22;9570;50.854;13.778;2023-06-04T00:25:27;7.60;99.90
18876;DHT22;9570;50.854;13.778;2023-06-04T00:27:53;7.50;99.90
18876;DHT22;9570;50.854;13.778;2023-06-04T00:30:18;7.50;99.90
18876;DHT22;9570;50.854;13.778;2023-06-04T00:32:43;7.70;99.90
18876;DHT22;9570;50.854;13.778;2023-06-04T00:35:09;7.40;99.90
18876;DHT22;9570;50.854;13.778;2023-06-04T00:37:35;7.40;99.90
18876;DHT22;9570;50.854;13.778;2023-06-04T00:40:00;7.30;99.90
18876;DHT22;9570;50.854;13.778;2023-06-04T00:42:26;7.30;99.90
18876;DHT22;9570;50.854;13.778;2023-06-04T00:44:51;7.20;99.90
18876;DHT22;9570;50.854;13.778;2023-06-04T00:47:18;7.20;99.90
18876;DHT22;9570;50.854;13.778;2023-06-04T00:49:45;7.20;99.90
18876;DHT22;9570;50.854;13.778;2023-06-04T00:52:13;7.20;99.90
18876;DHT22;9570;50.854;13.778;2023-06-04T00:54:39;7.20;99.90
18876;DHT22;9570;50.854;13.778;2023-06-04T00:57:05;7.20;99.90
18876;DHT22;9570;50.854;13.778;2023-06-04T00:59:32;7.10;99.90
18876;DHT22;9570;50.854;13.778;2023-06-04T01:02:06;7.10;99.90
18876;DHT22;9570;50.854;13.778;2023-06-04T01:07:14;7.10;99.90
18876;DHT22;9570;50.854;13.778;2023-06-04T01:09:41;7.00;99.90
18876;DHT22;9570;50.854;13.778;2023-06-04T01:12:07;7.00;99.90
18876;DHT22;9570;50.854;13.778;2023-06-04T01:14:33;6.90;99.90
18876;DHT22;9570;50.854;13.778;2023-06-04T01:17:41;6.90;99.90
18876;DHT22;9570;50.854;13.778;2023-06-04T01:27:55;6.80;99.90
18876;DHT22;9570;50.854;13.778;2023-06-04T01:30:32;6.80;99.90
18876;DHT22;9570;50.854;13.778;2023-06-04T01:32:59;6.70;99.90
18876;DHT22;9570;50.854;13.778;2023-06-04T01:35:26;6.70;99.90
18876;DHT22;9570;50.854;13.778;2023-06-04T01:37:52;6.70;99.90
18876;DHT22;9570;50.854;13.778;2023-06-04T01:40:18;6.70;99.90
18876;DHT22;9570;50.854;13.778;2023-06-04T01:42:43;6.60;99.90
18876;DHT22;9570;50.854;13.778;2023-06-04T01:45:09;6.60;99.90
18876;DHT22;9570;50.854;13.778;2023-06-04T01:47:35;6.60;99.90
18876;DHT22;9570;50.854;13.778;2023-06-04T01:50:02;6.50;99.90
18876;DHT22;9570;50.854;13.778;2023-06-04T01:52:27;6.50;99.90
18876;DHT22;9570;50.854;13.778;2023-06-04T01:54:53;6.50;99.90
18876;DHT22;9570;50.854;13.778;2023-06-04T01:57:19;6.50;99.90
18876;DHT22;9570;50.854;13.778;2023-06-04T01:59:45;6.40;99.90
18876;DHT22;9570;50.854;13.778;2023-06-04T02:02:12;6.40;99.90
18876;DHT22;9570;50.854;13.778;2023-06-04T02:04:37;6.30;99.90
18876;DHT22;9570;50.854;13.778;2023-06-04T02:07:07;6.30;99.90
18876;DHT22;9570;50.854;13.778;2023-06-04T02:09:33;6.30;99.90
18876;DHT22;9570;50.854;13.778;2023-06-04T02:12:00;6.30;99.90
18876;DHT22;9570;50.854;13.778;2023-06-04T02:14:26;6.20;99.90
18876;DHT22;9570;50.854;13.778;2023-06-04T02:16:51;6.20;99.90
18876;DHT22;9570;50.854;13.778;2023-06-04T02:19:19;6.20;99.90
18876;DHT22;9570;50.854;13.778;2023-06-04T02:21:45;6.20;99.90
18876;DHT22;9570;50.854;13.778;2023-06-04T02:24:10;6.20;99.90
18876;DHT22;9570;50.854;13.778;2023-06-04T02:26:36;6.20;99.90
18876;DHT22;9570;50.854;13.778;2023-06-04T02:29:01;6.20;99.90
18876;DHT22;9570;50.854;13.778;2023-06-04T02:31:27;6.20;99.90
18876;DHT22;9570;50.854;13.778;2023-06-04T02:33:52;6.10;99.90
18876;DHT22;9570;50.854;13.778;2023-06-04T02:36:18;6.10;99.90
18876;DHT22;9570;50.854;13.778;2023-06-04T02:38:43;6.00;99.90
18876;DHT22;9570;50.854;13.778;2023-06-04T02:41:09;6.10;99.90
18876;DHT22;9570;50.854;13.778;2023-06-04T02:43:34;6.10;99.90
18876;DHT22;9570;50.854;13.778;2023-06-04T02:46:00;6.00;99.90
18876;DHT22;9570;50.854;13.778;2023-06-04T02:48:25;6.00;99.90
18876;DHT22;9570;50.854;13.778;2023-06-04T02:50:51;6.00;99.90
18876;DHT22;9570;50.854;13.778;2023-06-04T02:53:16;6.00;99.90
18876;DHT22;9570;50.854;13.778;2023-06-04T02:55:42;5.90;99.90
18876;DHT22;9570;50.854;13.778;2023-06-04T02:58:08;5.90;99.90
18876;DHT22;9570;50.854;13.778;2023-06-04T03:00:34;5.90;99.90
18876;DHT22;9570;50.854;13.778;2023-06-04T03:03:00;5.90;99.90
18876;DHT22;9570;50.854;13.778;2023-06-04T03:05:28;5.90;99.90
18876;DHT22;9570;50.854;13.778;2023-06-04T03:07:56;5.90;99.90
18876;DHT22;9570;50.854;13.778;2023-06-04T03:10:22;5.90;99.90
18876;DHT22;9570;50.854;13.778;2023-06-04T03:12:48;5.90;99.90
18876;DHT22;9570;50.854;13.778;2023-06-04T03:15:13;5.80;99.90
18876;DHT22;9570;50.854;13.778;2023-06-04T03:17:40;5.80;99.90
18876;DHT22;9570;50.854;13.778;2023-06-04T03:20:07;5.80;99.90
18876;DHT22;9570;50.854;13.778;2023-06-04T03:22:33;5.80;99.90
18876;DHT22;9570;50.854;13.778;2023-06-04T03:25:01;5.80;99.90
18876;DHT22;9570;50.854;13.778;2023-06-04T03:27:26;5.80;99.90
18876;DHT22;9570;50.854;13.778;2023-06-04T03:29:52;5.90;99.90
18876;DHT22;9570;50.854;13.778;2023-06-04T03:32:17;5.80;99.90
18876;DHT22;9570;50.854;13.778;2023-06-04T03:34:43;5.80;99.90
18876;DHT22;9570;50.854;13.778;2023-06-04T03:37:09;5.80;99.90
18876;DHT22;9570;50.854;13.778;2023-06-04T03:39:35;5.90;99.90
18876;DHT22;9570;50.854;13.778;2023-06-04T03:42:00;5.80;99.90
18876;DHT22;9570;50.854;13.778;2023-06-04T03:44:26;5.80;99.90
18876;DHT22;9570;50.854;13.778;2023-06-04T03:46:51;5.80;99.90
18876;DHT22;9570;50.854;13.778;2023-06-04T03:49:17;5.90;99.90
18876;DHT22;9570;50.854;13.778;2023-06-04T03:51:43;5.90;99.90
18876;DHT22;9570;50.854;13.778;2023-06-04T03:54:08;5.90;99.90
18876;DHT22;9570;50.854;13.778;2023-06-04T03:56:34;5.90;99.90
18876;DHT22;9570;50.854;13.778;2023-06-04T03:58:59;5.90;99.90
18876;DHT22;9570;50.854;13.778;2023-06-04T04:01:26;5.90;99.90
18876;DHT22;9570;50.854;13.778;2023-06-04T04:03:52;5.90;99.90
18876;DHT22;9570;50.854;13.778;2023-06-04T04:06:19;6.00;99.90
18876;DHT22;9570;50.854;13.778;2023-06-04T04:08:45;6.00;99.90
18876;DHT22;9570;50.854;13.778;2023-06-04T04:11:14;6.10;99.90
18876;DHT22;9570;50.854;13.778;2023-06-04T04:13:40;6.10;99.90
18876;DHT22;9570;50.854;13.778;2023-06-04T04:16:05;6.10;99.90
18876;DHT22;9570;50.854;13.778;2023-06-04T04:18:35;6.10;99.90
18876;DHT22;9570;50.854;13.778;2023-06-04T04:21:02;6.10;99.90
18876;DHT22;9570;50.854;13.778;2023-06-04T04:23:28;6.20;99.90
18876;DHT22;9570;50.854;13.778;2023-06-04T04:25:54;6.20;99.90
18876;DHT22;9570;50.854;13.778;2023-06-04T04:28:24;6.20;99.90
18876;DHT22;9570;50.854;13.778;2023-06-04T04:30:49;6.30;99.90
18876;DHT22;9570;50.854;13.778;2023-06-04T04:33:15;6.30;99.90
18876;DHT22;9570;50.854;13.778;2023-06-04T04:35:44;6.40;99.90
18876;DHT22;9570;50.854;13.778;2023-06-04T04:38:10;6.40;99.90
18876;DHT22;9570;50.854;13.778;2023-06-04T04:40:36;6.40;99.90
18876;DHT22;9570;50.854;13.778;2023-06-04T04:43:02;6.50;99.90
18876;DHT22;9570;50.854;13.778;2023-06-04T04:45:27;6.50;99.90
18876;DHT22;9570;50.854;13.778;2023-06-04T04:47:53;6.50;99.90
18876;DHT22;9570;50.854;13.778;2023-06-04T04:50:18;6.60;99.90
18876;DHT22;9570;50.854;13.778;2023-06-04T04:52:43;6.70;99.90
18876;DHT22;9570;50.854;13.778;2023-06-04T04:55:09;6.80;99.90
18876;DHT22;9570;50.854;13.778;2023-06-04T04:57:35;6.80;99.90
18876;DHT22;9570;50.854;13.778;2023-06-04T05:00:01;6.90;99.90
18876;DHT22;9570;50.854;13.778;2023-06-04T05:02:27;6.90;99.90
18876;DHT22;9570;50.854;13.778;2023-06-04T05:04:53;6.90;99.90
18876;DHT22;9570;50.854;13.778;2023-06-04T05:07:18;7.00;99.90
18876;DHT22;9570;50.854;13.778;2023-06-04T05:09:46;7.10;99.90
18876;DHT22;9570;50.854;13.778;2023-06-04T05:12:12;7.20;99.90
18876;DHT22;9570;50.854;13.778;2023-06-04T05:14:37;7.30;99.90
18876;DHT22;9570;50.854;13.778;2023-06-04T05:17:03;7.40;99.90
18876;DHT22;9570;50.854;13.778;2023-06-04T05:19:29;7.40;99.90
18876;DHT22;9570;50.854;13.778;2023-06-04T05:21:58;7.50;99.90
18876;DHT22;9570;50.854;13.778;2023-06-04T05:24:24;7.60;99.90
18876;DHT22;9570;50.854;13.778;2023-06-04T05:26:49;7.80;99.90
18876;DHT22;9570;50.854;13.778;2023-06-04T05:29:15;7.90;99.90
18876;DHT22;9570;50.854;13.778;2023-06-04T05:31:40;7.90;99.90
18876;DHT22;9570;50.854;13.778;2023-06-04T05:34:06;8.10;99.90
18876;DHT22;9570;50.854;13.778;2023-06-04T05:36:31;8.20;99.90
18876;DHT22;9570;50.854;13.778;2023-06-04T05:38:57;8.40;99.90
18876;DHT22;9570;50.854;13.778;2023-06-04T05:41:26;8.50;99.90
18876;DHT22;9570;50.854;13.778;2023-06-04T05:43:53;8.70;99.90
18876;DHT22;9570;50.854;13.778;2023-06-04T05:46:18;8.90;99.90
18876;DHT22;9570;50.854;13.778;2023-06-04T05:48:44;9.80;99.90
18876;DHT22;9570;50.854;13.778;2023-06-04T05:51:12;11.10;99.90
18876;DHT22;9570;50.854;13.778;2023-06-04T05:53:38;12.60;99.90
18876;DHT22;9570;50.854;13.778;2023-06-04T05:56:03;13.80;99.90
18876;DHT22;9570;50.854;13.778;2023-06-04T05:58:29;14.80;99.90
18876;DHT22;9570;50.854;13.778;2023-06-04T06:00:56;15.60;99.90
18876;DHT22;9570;50.854;13.778;2023-06-04T06:03:21;16.30;99.90
18876;DHT22;9570;50.854;13.778;2023-06-04T06:05:46;17.00;99.90
18876;DHT22;9570;50.854;13.778;2023-06-04T06:08:14;17.70;99.90
18876;DHT22;9570;50.854;13.778;2023-06-04T06:10:39;18.30;99.90
18876;DHT22;9570;50.854;13.778;2023-06-04T06:13:05;18.90;99.90
18876;DHT22;9570;50.854;13.778;2023-06-04T06:15:30;19.50;99.90
18876;DHT22;9570;50.854;13.778;2023-06-04T06:17:56;20.00;99.90
18876;DHT22;9570;50.854;13.778;2023-06-04T06:20:22;20.50;99.90
18876;DHT22;9570;50.854;13.778;2023-06-04T06:22:48;20.90;99.90
18876;DHT22;9570;50.854;13.778;2023-06-04T06:25:13;21.00;99.90
18876;DHT22;9570;50.854;13.778;2023-06-04T06:27:41;21.60;99.90
18876;DHT22;9570;50.854;13.778;2023-06-04T06:30:07;21.80;99.90
18876;DHT22;9570;50.854;13.778;2023-06-04T06:32:33;22.20;99.90
18876;DHT22;9570;50.854;13.778;2023-06-04T06:34:58;22.50;99.90
18876;DHT22;9570;50.854;13.778;2023-06-04T06:37:24;22.80;99.90
18876;DHT22;9570;50.854;13.778;2023-06-04T06:39:49;23.00;99.90
18876;DHT22;9570;50.854;13.778;2023-06-04T06:42:15;23.60;99.90
18876;DHT22;9570;50.854;13.778;2023-06-04T06:44:43;24.00;99.90
18876;DHT22;9570;50.854;13.778;2023-06-04T06:47:09;24.20;99.90
18876;DHT22;9570;50.854;13.778;2023-06-04T06:49:35;24.50;99.90
18876;DHT22;9570;50.854;13.778;2023-06-04T06:52:01;24.50;99.90
18876;DHT22;9570;50.854;13.778;2023-06-04T06:54:26;25.00;99.90
18876;DHT22;9570;50.854;13.778;2023-06-04T06:56:52;25.20;99.90
18876;DHT22;9570;50.854;13.778;2023-06-04T06:59:18;25.20;99.90
18876;DHT22;9570;50.854;13.778;2023-06-04T07:01:43;25.20;99.90
18876;DHT22;9570;50.854;13.778;2023-06-04T07:04:09;25.20;99.90
18876;DHT22;9570;50.854;13.778;2023-06-04T07:06:34;25.10;98.40
18876;DHT22;9570;50.854;13.778;2023-06-04T07:09:01;24.90;99.90
18876;DHT22;9570;50.854;13.778;2023-06-04T07:11:28;25.00;97.20
18876;DHT22;9570;50.854;13.778;2023-06-04T07:13:53;25.50;97.90
18876;DHT22;9570;50.854;13.778;2023-06-04T07:16:19;25.80;96.10
18876;DHT22;9570;50.854;13.778;2023-06-04T07:18:47;25.80;95.50
18876;DHT22;9570;50.854;13.778;2023-06-04T07:21:14;26.00;95.60
18876;DHT22;9570;50.854;13.778;2023-06-04T07:23:39;25.90;94.30
18876;DHT22;9570;50.854;13.778;2023-06-04T07:26:05;25.90;95.90
18876;DHT22;9570;50.854;13.778;2023-06-04T07:28:31;25.00;97.60
18876;DHT22;9570;50.854;13.778;2023-06-04T07:30:57;24.20;95.10
18876;DHT22;9570;50.854;13.778;2023-06-04T07:33:24;24.80;95.60
18876;DHT22;9570;50.854;13.778;2023-06-04T07:35:49;25.40;94.40
18876;DHT22;9570;50.854;13.778;2023-06-04T07:38:15;26.20;95.30
18876;DHT22;9570;50.854;13.778;2023-06-04T07:40:41;26.60;93.80
18876;DHT22;9570;50.854;13.778;2023-06-04T07:43:06;26.30;91.60
18876;DHT22;9570;50.854;13.778;2023-06-04T07:45:32;25.30;93.00
18876;DHT22;9570;50.854;13.778;2023-06-04T07:47:57;24.30;93.60
18876;DHT22;9570;50.854;13.778;2023-06-04T07:50:23;24.60;93.80
18876;DHT22;9570;50.854;13.778;2023-06-04T07:52:48;25.50;95.60
18876;DHT22;9570;50.854;13.778;2023-06-04T07:55:14;26.00;92.80
18876;DHT22;9570;50.854;13.778;2023-06-04T07:57:40;25.80;91.80
18876;DHT22;9570;50.854;13.778;2023-06-04T08:00:06;26.20;90.40
18876;DHT22;9570;50.854;13.778;2023-06-04T08:02:32;26.50;91.40
18876;DHT22;9570;50.854;13.778;2023-06-04T08:04:58;26.50;92.10
18876;DHT22;9570;50.854;13.778;2023-06-04T08:07:23;26.20;91.80
18876;DHT22;9570;50.854;13.778;2023-06-04T08:09:49;25.60;92.40
18876;DHT22;9570;50.854;13.778;2023-06-04T08:12:15;26.10;93.30
18876;DHT22;9570;50.854;13.778;2023-06-04T08:14:41;26.50;92.50
18876;DHT22;9570;50.854;13.778;2023-06-04T08:17:06;25.30;92.60
18876;DHT22;9570;50.854;13.778;2023-06-04T08:19:32;24.00;93.70
18876;DHT22;9570;50.854;13.778;2023-06-04T08:21:57;23.20;94.50
18876;DHT22;9570;50.854;13.778;2023-06-04T08:24:23;23.10;95.00
18876;DHT22;9570;50.854;13.778;2023-06-04T08:26:49;23.00;96.80
18876;DHT22;9570;50.854;13.778;2023-06-04T08:29:15;23.00;95.00
18876;DHT22;9570;50.854;13.778;2023-06-04T08:31:41;22.70;95.40
18876;DHT22;9570;50.854;13.778;2023-06-04T08:34:06;23.00;94.70
18876;DHT22;9570;50.854;13.778;2023-06-04T08:36:32;23.10;95.50
18876;DHT22;9570;50.854;13.778;2023-06-04T08:39:00;22.70;94.80
18876;DHT22;9570;50.854;13.778;2023-06-04T08:41:34;22.90;94.30
18876;DHT22;9570;50.854;13.778;2023-06-04T08:44:05;23.80;93.20
18876;DHT22;9570;50.854;13.778;2023-06-04T08:46:32;24.70;92.60
18876;DHT22;9570;50.854;13.778;2023-06-04T08:49:00;23.90;93.90
18876;DHT22;9570;50.854;13.778;2023-06-04T08:51:30;23.40;94.90
18876;DHT22;9570;50.854;13.778;2023-06-04T08:53:58;23.10;94.80
18876;DHT22;9570;50.854;13.778;2023-06-04T08:56:24;22.70;96.20
18876;DHT22;9570;50.854;13.778;2023-06-04T08:58:51;22.40;95.80
18876;DHT22;9570;50.854;13.778;2023-06-04T09:01:17;22.30;94.90
18876;DHT22;9570;50.854;13.778;2023-06-04T09:03:43;22.60;96.90
18876;DHT22;9570;50.854;13.778;2023-06-04T09:06:09;22.70;94.60
18876;DHT22;9570;50.854;13.778;2023-06-04T09:08:37;23.80;94.60
18876;DHT22;9570;50.854;13.778;2023-06-04T09:11:05;24.20;95.20
18876;DHT22;9570;50.854;13.778;2023-06-04T09:13:33;24.00;94.80
18876;DHT22;9570;50.854;13.778;2023-06-04T09:16:04;23.80;93.00
18876;DHT22;9570;50.854;13.778;2023-06-04T09:18:31;23.40;93.90
18876;DHT22;9570;50.854;13.778;2023-06-04T09:21:04;23.40;95.10
18876;DHT22;9570;50.854;13.778;2023-06-04T09:23:33;23.40;94.30
18876;DHT22;9570;50.854;13.778;2023-06-04T09:26:09;23.70;93.80
18876;DHT22;9570;50.854;13.778;2023-06-04T09:28:35;23.90;94.70
18876;DHT22;9570;50.854;13.778;2023-06-04T09:31:01;24.70;92.40
18876;DHT22;9570;50.854;13.778;2023-06-04T09:33:28;24.80;91.80
18876;DHT22;9570;50.854;13.778;2023-06-04T09:35:55;24.20;93.50
18876;DHT22;9570;50.854;13.778;2023-06-04T09:38:20;23.70;93.90
18876;DHT22;9570;50.854;13.778;2023-06-04T09:40:47;23.50;93.00
18876;DHT22;9570;50.854;13.778;2023-06-04T09:43:21;23.00;93.60
18876;DHT22;9570;50.854;13.778;2023-06-04T09:45:48;23.30;93.50
18876;DHT22;9570;50.854;13.778;2023-06-04T09:48:19;24.40;91.80
18876;DHT22;9570;50.854;13.778;2023-06-04T09:50:46;24.30;93.40
18876;DHT22;9570;50.854;13.778;2023-06-04T09:53:15;24.20;91.40
18876;DHT22;9570;50.854;13.778;2023-06-04T09:55:41;24.00;91.80
18876;DHT22;9570;50.854;13.778;2023-06-04T09:58:07;23.90;92.80
18876;DHT22;9570;50.854;13.778;2023-06-04T10:00:33;23.90;93.50
18876;DHT22;9570;50.854;13.778;2023-06-04T10:03:02;24.20;92.60
18876;DHT22;9570;50.854;13.778;2023-06-04T10:05:32;24.60;92.60
18876;DHT22;9570;50.854;13.778;2023-06-04T10:08:01;24.80;91.60
18876;DHT22;9570;50.854;13.778;2023-06-04T10:10:28;25.20;90.00
18876;DHT22;9570;50.854;13.778;2023-06-04T10:13:20;25.50;90.10
18876;DHT22;9570;50.854;13.778;2023-06-04T10:15:46;25.80;90.70
18876;DHT22;9570;50.854;13.778;2023-06-04T10:18:13;25.80;89.30
18876;DHT22;9570;50.854;13.778;2023-06-04T10:20:40;26.10;87.70
18876;DHT22;9570;50.854;13.778;2023-06-04T10:23:06;26.50;87.90
18876;DHT22;9570;50.854;13.778;2023-06-04T10:25:34;26.10;89.10
18876;DHT22;9570;50.854;13.778;2023-06-04T10:28:01;25.60;91.10
18876;DHT22;9570;50.854;13.778;2023-06-04T10:30:29;25.10;91.40
18876;DHT22;9570;50.854;13.778;2023-06-04T10:32:56;25.00;91.80
18876;DHT22;9570;50.854;13.778;2023-06-04T10:35:33;24.60;93.20
18876;DHT22;9570;50.854;13.778;2023-06-04T10:38:09;24.30;93.40
18876;DHT22;9570;50.854;13.778;2023-06-04T10:40:36;24.30;92.70
18876;DHT22;9570;50.854;13.778;2023-06-04T10:43:06;24.00;91.70
18876;DHT22;9570;50.854;13.778;2023-06-04T10:45:32;23.90;92.60
18876;DHT22;9570;50.854;13.778;2023-06-04T10:48:05;23.70;92.60
18876;DHT22;9570;50.854;13.778;2023-06-04T10:50:32;23.40;92.20
18876;DHT22;9570;50.854;13.778;2023-06-04T10:52:58;23.00;93.90
18876;DHT22;9570;50.854;13.778;2023-06-04T10:55:28;23.00;92.00
18876;DHT22;9570;50.854;13.778;2023-06-04T10:57:54;22.80;92.30
18876;DHT22;9570;50.854;13.778;2023-06-04T11:00:21;22.90;92.20
18876;DHT22;9570;50.854;13.778;2023-06-04T11:02:56;22.30;91.90
18876;DHT22;9570;50.854;13.778;2023-06-04T11:05:22;22.10;92.90
18876;DHT22;9570;50.854;13.778;2023-06-04T11:07:49;22.00;93.20
18876;DHT22;9570;50.854;13.778;2023-06-04T11:10:16;22.10;94.20
18876;DHT22;9570;50.854;13.778;2023-06-04T11:15:08;22.20;95.10
18876;DHT22;9570;50.854;13.778;2023-06-04T11:17:34;22.20;92.60
18876;DHT22;9570;50.854;13.778;2023-06-04T11:19:59;22.30;92.60
18876;DHT22;9570;50.854;13.778;2023-06-04T11:22:25;22.40;91.60
18876;DHT22;9570;50.854;13.778;2023-06-04T11:24:59;22.40;91.60
18876;DHT22;9570;50.854;13.778;2023-06-04T11:27:25;22.30;94.70
18876;DHT22;9570;50.854;13.778;2023-06-04T11:29:51;22.30;94.00
18876;DHT22;9570;50.854;13.778;2023-06-04T11:32:23;22.30;94.10
18876;DHT22;9570;50.854;13.778;2023-06-04T11:34:49;22.20;93.40
18876;DHT22;9570;50.854;13.778;2023-06-04T11:37:15;22.30;93.40
18876;DHT22;9570;50.854;13.778;2023-06-04T11:39:40;22.20;91.90
18876;DHT22;9570;50.854;13.778;2023-06-04T11:42:10;22.30;91.20
18876;DHT22;9570;50.854;13.778;2023-06-04T11:44:36;22.20;92.70
18876;DHT22;9570;50.854;13.778;2023-06-04T11:47:05;22.30;92.50
18876;DHT22;9570;50.854;13.778;2023-06-04T11:49:31;22.20;91.80
18876;DHT22;9570;50.854;13.778;2023-06-04T11:51:57;22.00;92.50
18876;DHT22;9570;50.854;13.778;2023-06-04T11:54:23;22.10;93.60
18876;DHT22;9570;50.854;13.778;2023-06-04T11:56:49;21.90;92.70
18876;DHT22;9570;50.854;13.778;2023-06-04T11:59:17;21.90;93.00
18876;DHT22;9570;50.854;13.778;2023-06-04T12:01:43;21.90;91.60
18876;DHT22;9570;50.854;13.778;2023-06-04T12:06:50;21.90;91.60
18876;DHT22;9570;50.854;13.778;2023-06-04T12:09:20;21.90;91.50
18876;DHT22;9570;50.854;13.778;2023-06-04T12:11:47;21.80;91.30
18876;DHT22;9570;50.854;13.778;2023-06-04T12:14:16;21.70;92.10
18876;DHT22;9570;50.854;13.778;2023-06-04T12:16:58;21.80;92.70
18876;DHT22;9570;50.854;13.778;2023-06-04T12:19:24;21.90;91.60
18876;DHT22;9570;50.854;13.778;2023-06-04T12:22:05;21.90;92.40
18876;DHT22;9570;50.854;13.778;2023-06-04T12:24:32;21.70;92.20
18876;DHT22;9570;50.854;13.778;2023-06-04T12:27:07;21.60;91.60
18876;DHT22;9570;50.854;13.778;2023-06-04T12:29:33;21.60;90.80
18876;DHT22;9570;50.854;13.778;2023-06-04T12:32:09;21.60;91.50
18876;DHT22;9570;50.854;13.778;2023-06-04T12:34:39;21.60;92.40
18876;DHT22;9570;50.854;13.778;2023-06-04T12:37:05;21.70;90.80
18876;DHT22;9570;50.854;13.778;2023-06-04T12:39:32;21.80;92.50
18876;DHT22;9570;50.854;13.778;2023-06-04T12:41:58;21.80;92.00
18876;DHT22;9570;50.854;13.778;2023-06-04T12:44:24;21.80;91.70
18876;DHT22;9570;50.854;13.778;2023-06-04T12:46:50;21.80;91.50
18876;DHT22;9570;50.854;13.778;2023-06-04T12:49:15;22.00;92.20
18876;DHT22;9570;50.854;13.778;2023-06-04T12:51:41;22.00;92.90
18876;DHT22;9570;50.854;13.778;2023-06-04T12:54:06;21.90;93.90
18876;DHT22;9570;50.854;13.778;2023-06-04T12:56:32;21.90;94.20
18876;DHT22;9570;50.854;13.778;2023-06-04T12:58:57;21.80;93.40
18876;DHT22;9570;50.854;13.778;2023-06-04T13:01:22;21.80;93.00
18876;DHT22;9570;50.854;13.778;2023-06-04T13:03:48;21.80;94.00
18876;DHT22;9570;50.854;13.778;2023-06-04T13:06:14;21.90;94.00
18876;DHT22;9570;50.854;13.778;2023-06-04T13:08:39;21.90;94.50
18876;DHT22;9570;50.854;13.778;2023-06-04T13:11:05;22.00;93.90
18876;DHT22;9570;50.854;13.778;2023-06-04T13:13:31;21.90;93.50
18876;DHT22;9570;50.854;13.778;2023-06-04T13:15:57;21.70;92.70
18876;DHT22;9570;50.854;13.778;2023-06-04T13:18:22;21.60;93.20
18876;DHT22;9570;50.854;13.778;2023-06-04T13:20:48;21.60;92.10
18876;DHT22;9570;50.854;13.778;2023-06-04T13:23:16;21.50;92.80
18876;DHT22;9570;50.854;13.778;2023-06-04T13:25:42;21.50;93.20
18876;DHT22;9570;50.854;13.778;2023-06-04T13:28:08;21.60;91.90
18876;DHT22;9570;50.854;13.778;2023-06-04T13:30:36;21.60;93.30
18876;DHT22;9570;50.854;13.778;2023-06-04T13:33:05;21.70;93.40
18876;DHT22;9570;50.854;13.778;2023-06-04T13:35:31;21.70;93.40
18876;DHT22;9570;50.854;13.778;2023-06-04T13:37:56;21.70;93.60
18876;DHT22;9570;50.854;13.778;2023-06-04T13:40:22;21.70;92.80
18876;DHT22;9570;50.854;13.778;2023-06-04T13:42:48;21.70;93.30
18876;DHT22;9570;50.854;13.778;2023-06-04T13:45:13;21.70;92.60
18876;DHT22;9570;50.854;13.778;2023-06-04T13:47:39;21.60;93.30
18876;DHT22;9570;50.854;13.778;2023-06-04T13:50:05;21.60;93.60
18876;DHT22;9570;50.854;13.778;2023-06-04T13:52:31;21.60;93.10
18876;DHT22;9570;50.854;13.778;2023-06-04T13:54:56;21.50;93.60
18876;DHT22;9570;50.854;13.778;2023-06-04T13:57:24;21.50;94.10
18876;DHT22;9570;50.854;13.778;2023-06-04T13:59:50;21.60;94.10
18876;DHT22;9570;50.854;13.778;2023-06-04T14:02:15;21.50;92.20
18876;DHT22;9570;50.854;13.778;2023-06-04T14:04:41;21.40;93.80
18876;DHT22;9570;50.854;13.778;2023-06-04T14:07:06;21.40;94.10
18876;DHT22;9570;50.854;13.778;2023-06-04T14:09:32;21.30;93.70
18876;DHT22;9570;50.854;13.778;2023-06-04T14:11:58;21.30;94.30
18876;DHT22;9570;50.854;13.778;2023-06-04T14:14:23;21.30;94.10
18876;DHT22;9570;50.854;13.778;2023-06-04T14:16:49;21.40;93.40
18876;DHT22;9570;50.854;13.778;2023-06-04T14:19:15;21.40;94.10
18876;DHT22;9570;50.854;13.778;2023-06-04T14:21:44;21.40;94.50
18876;DHT22;9570;50.854;13.778;2023-06-04T14:24:10;21.40;94.80
18876;DHT22;9570;50.854;13.778;2023-06-04T14:26:36;21.30;93.40
18876;DHT22;9570;50.854;13.778;2023-06-04T14:29:02;21.30;94.60
18876;DHT22;9570;50.854;13.778;2023-06-04T14:31:28;21.30;93.60
18876;DHT22;9570;50.854;13.778;2023-06-04T14:33:53;21.30;94.50
18876;DHT22;9570;50.854;13.778;2023-06-04T14:36:19;21.20;94.00
18876;DHT22;9570;50.854;13.778;2023-06-04T14:38:46;21.30;94.30
18876;DHT22;9570;50.854;13.778;2023-06-04T14:41:13;21.10;94.20
18876;DHT22;9570;50.854;13.778;2023-06-04T14:43:38;21.20;94.80
18876;DHT22;9570;50.854;13.778;2023-06-04T14:46:04;21.20;93.60
18876;DHT22;9570;50.854;13.778;2023-06-04T14:48:30;21.30;93.50
18876;DHT22;9570;50.854;13.778;2023-06-04T14:50:55;21.30;93.50
18876;DHT22;9570;50.854;13.778;2023-06-04T14:53:21;21.30;94.10
18876;DHT22;9570;50.854;13.778;2023-06-04T14:55:47;21.40;93.80
18876;DHT22;9570;50.854;13.778;2023-06-04T14:58:12;21.30;93.80
18876;DHT22;9570;50.854;13.778;2023-06-04T15:00:38;21.10;95.00
18876;DHT22;9570;50.854;13.778;2023-06-04T15:03:04;21.10;94.50
18876;DHT22;9570;50.854;13.778;2023-06-04T15:05:30;21.10;94.60
18876;DHT22;9570;50.854;13.778;2023-06-04T15:07:56;21.10;92.80
18876;DHT22;9570;50.854;13.778;2023-06-04T15:10:21;21.20;93.30
18876;DHT22;9570;50.854;13.778;2023-06-04T15:12:47;21.20;93.30
18876;DHT22;9570;50.854;13.778;2023-06-04T15:15:12;21.20;93.30
18876;DHT22;9570;50.854;13.778;2023-06-04T15:17:38;21.20;92.80
18876;DHT22;9570;50.854;13.778;2023-06-04T15:20:04;21.20;93.10
18876;DHT22;9570;50.854;13.778;2023-06-04T15:22:30;21.10;93.20
18876;DHT22;9570;50.854;13.778;2023-06-04T15:24:55;21.00;94.10
18876;DHT22;9570;50.854;13.778;2023-06-04T15:27:21;20.90;93.10
18876;DHT22;9570;50.854;13.778;2023-06-04T15:29:46;20.90;93.80
18876;DHT22;9570;50.854;13.778;2023-06-04T15:32:12;20.90;93.70
18876;DHT22;9570;50.854;13.778;2023-06-04T15:34:37;20.80;93.30
18876;DHT22;9570;50.854;13.778;2023-06-04T15:37:03;20.80;92.80
18876;DHT22;9570;50.854;13.778;2023-06-04T15:39:28;20.80;92.00
18876;DHT22;9570;50.854;13.778;2023-06-04T15:41:54;20.90;91.90
18876;DHT22;9570;50.854;13.778;2023-06-04T15:44:20;21.00;92.10
18876;DHT22;9570;50.854;13.778;2023-06-04T15:46:45;20.90;92.40
18876;DHT22;9570;50.854;13.778;2023-06-04T15:49:11;20.90;91.90